Time,TemperatureF,DewpointF,PressureIn,WindDirection,WindDirectionDegrees,WindSpeedMPH,WindSpeedGustMPH,Humidity,HourlyPrecipIn,Conditions,Clouds,dailyrainin,SoftwareType,DateUTC
2013-06-03 00:00:00,57.0,-99.9,-100.00,North,7,17.0,24.0,-999,-99.99,,,-99.99,,2013-06-03 04:00:00,
2013-06-03 00:23:00,57.0,-99.9,-100.00,North,7,17.0,24.0,-999,-99.99,,,-99.99,,2013-06-03 04:23:00,
2013-06-03 00:33:00,57.0,-99.9,-100.00,North,7,17.0,24.0,-999,-99.99,,,-99.99,,2013-06-03 04:33:00,
2013-06-03 00:42:00,57.0,-99.9,-100.00,North,7,17.0,24.0,-999,-99.99,,,-99.99,,2013-06-03 04:42:00,
2013-06-03 00:53:00,57.0,-99.9,-100.00,North,7,17.0,24.0,-999,-99.99,,,-99.99,,2013-06-03 04:53:00,
2013-06-03 01:00:00,56.0,-99.9,-100.00,NNW,343,14.0,19.0,-999,-99.99,,,-99.99,,2013-06-03 05:00:00,
2013-06-03 01:22:00,56.0,-99.9,-100.00,NNW,343,14.0,19.0,-999,-99.99,,,-99.99,,2013-06-03 05:22:00,
2013-06-03 01:32:00,56.0,-99.9,-100.00,NNW,343,14.0,19.0,-999,-99.99,,,-99.99,,2013-06-03 05:32:00,
2013-06-03 01:43:00,56.0,-99.9,-100.00,NNW,343,14.0,19.0,-999,-99.99,,,-99.99,,2013-06-03 05:43:00,
2013-06-03 01:52:00,56.0,-99.9,-100.00,NNW,343,14.0,19.0,-999,-99.99,,,-99.99,,2013-06-03 05:52:00,
2013-06-03 02:00:00,55.0,-99.9,-100.00,NNW,336,14.0,20.0,-999,-99.99,,,-99.99,,2013-06-03 06:00:00,
2013-06-03 02:22:00,55.0,-99.9,-100.00,NNW,336,14.0,20.0,-999,-99.99,,,-99.99,,2013-06-03 06:22:00,
2013-06-03 02:32:00,55.0,-99.9,-100.00,NNW,336,14.0,20.0,-999,-99.99,,,-99.99,,2013-06-03 06:32:00,
2013-06-03 02:42:00,55.0,-99.9,-100.00,NNW,336,14.0,20.0,-999,-99.99,,,-99.99,,2013-06-03 06:42:00,
2013-06-03 02:53:00,55.0,-99.9,-100.00,NNW,336,14.0,20.0,-999,-99.99,,,-99.99,,2013-06-03 06:53:00,
2013-06-03 03:00:00,54.0,-99.9,-100.00,NNW,347,18.0,21.0,-999,-99.99,,,-99.99,,2013-06-03 07:00:00,
2013-06-03 03:22:00,54.0,-99.9,-100.00,NNW,347,18.0,21.0,-999,-99.99,,,-99.99,,2013-06-03 07:22:00,
2013-06-03 03:32:00,54.0,-99.9,-100.00,NNW,347,18.0,21.0,-999,-99.99,,,-99.99,,2013-06-03 07:32:00,
2013-06-03 03:42:00,54.0,-99.9,-100.00,NNW,347,18.0,21.0,-999,-99.99,,,-99.99,,2013-06-03 07:42:00,
2013-06-03 03:52:00,54.0,-99.9,-100.00,NNW,347,18.0,21.0,-999,-99.99,,,-99.99,,2013-06-03 07:52:00,
2013-06-03 04:00:00,53.0,-99.9,-100.00,NNW,333,11.0,15.0,-999,-99.99,,,-99.99,,2013-06-03 08:00:00,
2013-06-03 04:22:00,53.0,-99.9,-100.00,NNW,333,11.0,15.0,-999,-99.99,,,-99.99,,2013-06-03 08:22:00,
2013-06-03 04:32:00,53.0,-99.9,-100.00,NNW,333,11.0,15.0,-999,-99.99,,,-99.99,,2013-06-03 08:32:00,
2013-06-03 04:42:00,53.0,-99.9,-100.00,NNW,333,11.0,15.0,-999,-99.99,,,-99.99,,2013-06-03 08:42:00,
2013-06-03 04:52:00,53.0,-99.9,-100.00,NNW,333,11.0,15.0,-999,-99.99,,,-99.99,,2013-06-03 08:52:00,
2013-06-03 05:00:00,53.0,-99.9,-100.00,NNW,336,11.0,15.0,-999,-99.99,,,-99.99,,2013-06-03 09:00:00,
2013-06-03 05:22:00,53.0,-99.9,-100.00,NNW,336,11.0,15.0,-999,-99.99,,,-99.99,,2013-06-03 09:22:00,
2013-06-03 05:33:00,53.0,-99.9,-100.00,NNW,336,11.0,15.0,-999,-99.99,,,-99.99,,2013-06-03 09:33:00,
2013-06-03 05:43:00,53.0,-99.9,-100.00,NNW,336,11.0,15.0,-999,-99.99,,,-99.99,,2013-06-03 09:43:00,
2013-06-03 05:53:00,53.0,-99.9,-100.00,NNW,336,11.0,15.0,-999,-99.99,,,-99.99,,2013-06-03 09:53:00,
2013-06-03 06:00:00,52.0,-99.9,-100.00,NW,325,11.0,15.0,-999,-99.99,,,-99.99,,2013-06-03 10:00:00,
2013-06-03 06:22:00,52.0,-99.9,-100.00,NW,325,11.0,15.0,-999,-99.99,,,-99.99,,2013-06-03 10:22:00,
2013-06-03 06:33:00,52.0,-99.9,-100.00,NW,325,11.0,15.0,-999,-99.99,,,-99.99,,2013-06-03 10:33:00,
2013-06-03 06:42:00,52.0,-99.9,-100.00,NW,325,11.0,15.0,-999,-99.99,,,-99.99,,2013-06-03 10:42:00,
2013-06-03 06:53:00,52.0,-99.9,-100.00,NW,325,11.0,15.0,-999,-99.99,,,-99.99,,2013-06-03 10:53:00,
2013-06-03 07:00:00,52.0,-99.9,-100.00,NW,312,10.0,13.0,-999,-99.99,,,-99.99,,2013-06-03 11:00:00,
2013-06-03 07:22:00,52.0,-99.9,-100.00,NW,312,10.0,13.0,-999,-99.99,,,-99.99,,2013-06-03 11:22:00,
2013-06-03 07:32:00,52.0,-99.9,-100.00,NW,312,10.0,13.0,-999,-99.99,,,-99.99,,2013-06-03 11:32:00,
2013-06-03 07:42:00,52.0,-99.9,-100.00,NW,312,10.0,13.0,-999,-99.99,,,-99.99,,2013-06-03 11:42:00,
2013-06-03 07:52:00,52.0,-99.9,-100.00,NW,312,10.0,13.0,-999,-99.99,,,-99.99,,2013-06-03 11:52:00,
2013-06-03 08:00:00,53.0,-99.9,-100.00,NW,326,13.0,15.0,-999,-99.99,,,-99.99,,2013-06-03 12:00:00,
2013-06-03 08:22:00,53.0,-99.9,-100.00,NW,326,13.0,15.0,-999,-99.99,,,-99.99,,2013-06-03 12:22:00,
2013-06-03 08:32:00,53.0,-99.9,-100.00,NW,326,13.0,15.0,-999,-99.99,,,-99.99,,2013-06-03 12:32:00,
2013-06-03 08:42:00,53.0,-99.9,-100.00,NW,326,13.0,15.0,-999,-99.99,,,-99.99,,2013-06-03 12:42:00,
2013-06-03 08:52:00,53.0,-99.9,-100.00,NW,326,13.0,15.0,-999,-99.99,,,-99.99,,2013-06-03 12:52:00,
2013-06-03 09:00:00,53.0,-99.9,-100.00,NW,321,13.0,16.0,-999,-99.99,,,-99.99,,2013-06-03 13:00:00,
2013-06-03 09:22:00,53.0,-99.9,-100.00,NW,321,13.0,16.0,-999,-99.99,,,-99.99,,2013-06-03 13:22:00,
2013-06-03 09:33:00,53.0,-99.9,-100.00,NW,321,13.0,16.0,-999,-99.99,,,-99.99,,2013-06-03 13:33:00,
2013-06-03 09:43:00,53.0,-99.9,-100.00,NW,321,13.0,16.0,-999,-99.99,,,-99.99,,2013-06-03 13:43:00,
2013-06-03 09:53:00,53.0,-99.9,-100.00,NW,321,13.0,16.0,-999,-99.99,,,-99.99,,2013-06-03 13:53:00,
2013-06-03 10:00:00,54.0,-99.9,-100.00,NNW,342,11.0,17.0,-999,-99.99,,,-99.99,,2013-06-03 14:00:00,
2013-06-03 10:22:00,54.0,-99.9,-100.00,NNW,342,11.0,17.0,-999,-99.99,,,-99.99,,2013-06-03 14:22:00,
2013-06-03 10:33:00,54.0,-99.9,-100.00,NNW,342,11.0,17.0,-999,-99.99,,,-99.99,,2013-06-03 14:33:00,
2013-06-03 10:42:00,54.0,-99.9,-100.00,NNW,342,11.0,17.0,-999,-99.99,,,-99.99,,2013-06-03 14:42:00,
2013-06-03 10:52:00,54.0,-99.9,-100.00,NNW,342,11.0,17.0,-999,-99.99,,,-99.99,,2013-06-03 14:52:00,
2013-06-03 11:00:00,55.0,-99.9,-100.00,North,352,11.0,17.0,-999,-99.99,,,-99.99,,2013-06-03 15:00:00,
2013-06-03 11:22:00,55.0,-99.9,-100.00,North,352,11.0,17.0,-999,-99.99,,,-99.99,,2013-06-03 15:22:00,
2013-06-03 11:33:00,55.0,-99.9,-100.00,North,352,11.0,17.0,-999,-99.99,,,-99.99,,2013-06-03 15:33:00,
2013-06-03 11:43:00,55.0,-99.9,-100.00,North,352,11.0,17.0,-999,-99.99,,,-99.99,,2013-06-03 15:43:00,
2013-06-03 11:53:00,55.0,-99.9,-100.00,North,352,11.0,17.0,-999,-99.99,,,-99.99,,2013-06-03 15:53:00,
2013-06-03 12:00:00,53.0,-99.9,-100.00,North,2,21.0,26.0,-999,-99.99,,,-99.99,,2013-06-03 16:00:00,
2013-06-03 12:23:00,53.0,-99.9,-100.00,North,2,21.0,26.0,-999,-99.99,,,-99.99,,2013-06-03 16:23:00,
2013-06-03 12:33:00,53.0,-99.9,-100.00,North,2,21.0,26.0,-999,-99.99,,,-99.99,,2013-06-03 16:33:00,
2013-06-03 12:42:00,53.0,-99.9,-100.00,North,2,21.0,26.0,-999,-99.99,,,-99.99,,2013-06-03 16:42:00,
2013-06-03 12:54:00,53.0,-99.9,-100.00,North,2,21.0,26.0,-999,-99.99,,,-99.99,,2013-06-03 16:54:00,
2013-06-03 13:00:00,53.0,-99.9,-100.00,North,2,25.0,29.0,-999,-99.99,,,-99.99,,2013-06-03 17:00:00,
2013-06-03 13:22:00,53.0,-99.9,-100.00,North,2,25.0,29.0,-999,-99.99,,,-99.99,,2013-06-03 17:22:00,
2013-06-03 13:33:00,53.0,-99.9,-100.00,North,2,25.0,29.0,-999,-99.99,,,-99.99,,2013-06-03 17:33:00,
2013-06-03 13:42:00,53.0,-99.9,-100.00,North,2,25.0,29.0,-999,-99.99,,,-99.99,,2013-06-03 17:42:00,
2013-06-03 13:52:00,53.0,-99.9,-100.00,North,2,25.0,29.0,-999,-99.99,,,-99.99,,2013-06-03 17:52:00,
2013-06-03 14:00:00,53.0,-99.9,-100.00,North,358,24.0,29.0,-999,-99.99,,,-99.99,,2013-06-03 18:00:00,
2013-06-03 14:22:00,53.0,-99.9,-100.00,North,358,24.0,29.0,-999,-99.99,,,-99.99,,2013-06-03 18:22:00,
2013-06-03 14:32:00,53.0,-99.9,-100.00,North,358,24.0,29.0,-999,-99.99,,,-99.99,,2013-06-03 18:32:00,
2013-06-03 14:43:00,53.0,-99.9,-100.00,North,358,24.0,29.0,-999,-99.99,,,-99.99,,2013-06-03 18:43:00,
2013-06-03 14:53:00,53.0,-99.9,-100.00,North,358,24.0,29.0,-999,-99.99,,,-99.99,,2013-06-03 18:53:00,
2013-06-03 15:00:00,56.0,-99.9,-100.00,North,358,20.0,24.0,-999,-99.99,,,-99.99,,2013-06-03 19:00:00,
2013-06-03 15:23:00,56.0,-99.9,-100.00,North,358,20.0,24.0,-999,-99.99,,,-99.99,,2013-06-03 19:23:00,
2013-06-03 15:33:00,56.0,-99.9,-100.00,North,358,20.0,24.0,-999,-99.99,,,-99.99,,2013-06-03 19:33:00,
2013-06-03 15:42:00,56.0,-99.9,-100.00,North,358,20.0,24.0,-999,-99.99,,,-99.99,,2013-06-03 19:42:00,
2013-06-03 15:53:00,56.0,-99.9,-100.00,North,358,20.0,24.0,-999,-99.99,,,-99.99,,2013-06-03 19:53:00,
2013-06-03 16:00:00,57.0,-99.9,-100.00,North,0,22.0,28.0,-999,-99.99,,,-99.99,,2013-06-03 20:00:00,
2013-06-03 16:22:00,57.0,-99.9,-100.00,North,0,22.0,28.0,-999,-99.99,,,-99.99,,2013-06-03 20:22:00,
2013-06-03 16:33:00,57.0,-99.9,-100.00,North,0,22.0,28.0,-999,-99.99,,,-99.99,,2013-06-03 20:33:00,
2013-06-03 16:43:00,57.0,-99.9,-100.00,North,0,22.0,28.0,-999,-99.99,,,-99.99,,2013-06-03 20:43:00,
2013-06-03 16:53:00,57.0,-99.9,-100.00,North,0,22.0,28.0,-999,-99.99,,,-99.99,,2013-06-03 20:53:00,
2013-06-03 17:00:00,59.0,-99.9,-100.00,North,1,18.0,24.0,-999,-99.99,,,-99.99,,2013-06-03 21:00:00,
2013-06-03 17:22:00,59.0,-99.9,-100.00,North,1,18.0,24.0,-999,-99.99,,,-99.99,,2013-06-03 21:22:00,
2013-06-03 17:33:00,59.0,-99.9,-100.00,North,1,18.0,24.0,-999,-99.99,,,-99.99,,2013-06-03 21:33:00,
2013-06-03 17:43:00,59.0,-99.9,-100.00,North,1,18.0,24.0,-999,-99.99,,,-99.99,,2013-06-03 21:43:00,
2013-06-03 17:53:00,59.0,-99.9,-100.00,North,1,18.0,24.0,-999,-99.99,,,-99.99,,2013-06-03 21:53:00,
2013-06-03 18:00:00,60.0,-99.9,-100.00,NNW,344,11.0,17.0,-999,-99.99,,,-99.99,,2013-06-03 22:00:00,
2013-06-03 18:23:00,60.0,-99.9,-100.00,NNW,344,11.0,17.0,-999,-99.99,,,-99.99,,2013-06-03 22:23:00,
2013-06-03 18:33:00,60.0,-99.9,-100.00,NNW,344,11.0,17.0,-999,-99.99,,,-99.99,,2013-06-03 22:33:00,
2013-06-03 18:42:00,60.0,-99.9,-100.00,NNW,344,11.0,17.0,-999,-99.99,,,-99.99,,2013-06-03 22:42:00,
2013-06-03 18:53:00,60.0,-99.9,-100.00,NNW,344,11.0,17.0,-999,-99.99,,,-99.99,,2013-06-03 22:53:00,
2013-06-03 19:00:00,63.0,-99.9,-100.00,NW,322,16.0,21.0,-999,-99.99,,,-99.99,,2013-06-03 23:00:00,
2013-06-03 19:23:00,63.0,-99.9,-100.00,NW,322,16.0,21.0,-999,-99.99,,,-99.99,,2013-06-03 23:23:00,
2013-06-03 19:32:00,63.0,-99.9,-100.00,NW,322,16.0,21.0,-999,-99.99,,,-99.99,,2013-06-03 23:32:00,
2013-06-03 19:42:00,63.0,-99.9,-100.00,NW,322,16.0,21.0,-999,-99.99,,,-99.99,,2013-06-03 23:42:00,
2013-06-03 19:53:00,63.0,-99.9,-100.00,NW,322,16.0,21.0,-999,-99.99,,,-99.99,,2013-06-03 23:53:00,
2013-06-03 20:00:00,62.0,-99.9,-100.00,NW,311,12.0,15.0,-999,-99.99,,,-99.99,,2013-06-04 00:00:00,
2013-06-03 20:22:00,62.0,-99.9,-100.00,NW,311,12.0,15.0,-999,-99.99,,,-99.99,,2013-06-04 00:22:00,
2013-06-03 20:32:00,62.0,-99.9,-100.00,NW,311,12.0,15.0,-999,-99.99,,,-99.99,,2013-06-04 00:32:00,
2013-06-03 20:42:00,62.0,-99.9,-100.00,NW,311,12.0,15.0,-999,-99.99,,,-99.99,,2013-06-04 00:42:00,
2013-06-03 20:52:00,62.0,-99.9,-100.00,NW,311,12.0,15.0,-999,-99.99,,,-99.99,,2013-06-04 00:52:00,
2013-06-03 21:00:00,60.0,-99.9,-100.00,NW,326,8.0,15.0,-999,-99.99,,,-99.99,,2013-06-04 01:00:00,
2013-06-03 21:22:00,60.0,-99.9,-100.00,NW,326,8.0,15.0,-999,-99.99,,,-99.99,,2013-06-04 01:22:00,
2013-06-03 21:32:00,60.0,-99.9,-100.00,NW,326,8.0,15.0,-999,-99.99,,,-99.99,,2013-06-04 01:32:00,
2013-06-03 21:42:00,60.0,-99.9,-100.00,NW,326,8.0,15.0,-999,-99.99,,,-99.99,,2013-06-04 01:42:00,
2013-06-03 21:53:00,60.0,-99.9,-100.00,NW,326,8.0,15.0,-999,-99.99,,,-99.99,,2013-06-04 01:53:00,
2013-06-03 22:00:00,57.0,-99.9,-100.00,NW,317,10.0,15.0,-999,-99.99,,,-99.99,,2013-06-04 02:00:00,
2013-06-03 22:22:00,57.0,-99.9,-100.00,NW,317,10.0,15.0,-999,-99.99,,,-99.99,,2013-06-04 02:22:00,
2013-06-03 22:32:00,57.0,-99.9,-100.00,NW,317,10.0,15.0,-999,-99.99,,,-99.99,,2013-06-04 02:32:00,
2013-06-03 22:42:00,57.0,-99.9,-100.00,NW,317,10.0,15.0,-999,-99.99,,,-99.99,,2013-06-04 02:42:00,
2013-06-03 22:52:00,57.0,-99.9,-100.00,NW,317,10.0,15.0,-999,-99.99,,,-99.99,,2013-06-04 02:52:00,
2013-06-03 23:00:00,56.0,-99.9,-100.00,West,277,8.0,9.0,-999,-99.99,,,-99.99,,2013-06-04 03:00:00,
2013-06-03 23:23:00,56.0,-99.9,-100.00,West,277,8.0,9.0,-999,-99.99,,,-99.99,,2013-06-04 03:23:00,
2013-06-03 23:33:00,56.0,-99.9,-100.00,West,277,8.0,9.0,-999,-99.99,,,-99.99,,2013-06-04 03:33:00,
2013-06-03 23:43:00,56.0,-99.9,-100.00,West,277,8.0,9.0,-999,-99.99,,,-99.99,,2013-06-04 03:43:00,
2013-06-03 23:54:00,56.0,-99.9,-100.00,West,277,8.0,9.0,-999,-99.99,,,-99.99,,2013-06-04 03:54:00,